Time;durP1;ratioP1;P1;durP2;ratioP2;P2;SDS_P1;SDS_P2;PMS_P1;PMS_P2;Temp;Humidity;BMP_temperature;BMP_pressure;BME280_temperature;BME280_humidity;BME280_pressure;Samples;Min_cycle;Max_cycle;Signal;HPM_P1;HPM_P2
2022/07/21 00:00:33;;;;;;;9.02;4.72;;;22.30;99.90;;;;;;5072766;28;20047;-70
2022/07/21 00:02:58;;;;;;;12.23;4.65;;;22.40;99.90;;;;;;5077057;28;20044;-70
2022/07/21 00:05:25;;;;;;;10.40;5.10;;;22.40;99.90;;;;;;5091775;28;20040;-70
2022/07/21 00:07:52;;;;;;;11.38;4.43;;;22.30;99.90;;;;;;5088316;28;20488;-73
2022/07/21 00:10:20;;;;;;;11.80;5.30;;;22.20;99.90;;;;;;5092728;28;20048;-70
2022/07/21 00:12:45;;;;;;;12.05;5.20;;;22.30;99.90;;;;;;5076283;28;20131;-70
2022/07/21 00:15:13;;;;;;;10.48;4.95;;;22.30;99.90;;;;;;5073031;28;20129;-70
2022/07/21 00:17:38;;;;;;;13.05;5.10;;;22.20;99.90;;;;;;5072241;28;20108;-70
2022/07/21 00:20:08;;;;;;;11.30;5.32;;;22.50;99.90;;;;;;5072411;28;20161;-69
2022/07/21 00:22:34;;;;;;;13.00;5.03;;;22.20;99.90;;;;;;5067640;28;20126;-70
2022/07/21 00:24:59;;;;;;;9.02;4.80;;;22.20;99.90;;;;;;5052636;28;20080;-70
2022/07/21 00:27:25;;;;;;;10.48;5.40;;;22.20;99.90;;;;;;5059442;28;20036;-70
2022/07/21 00:29:52;;;;;;;10.95;5.30;;;22.10;99.90;;;;;;5092737;28;20044;-70
2022/07/21 00:32:17;;;;;;;8.35;5.22;;;22.00;99.90;;;;;;5091478;28;20127;-70
2022/07/21 00:34:44;;;;;;;10.98;5.10;;;22.00;99.90;;;;;;5072455;28;20111;-70
2022/07/21 00:37:10;;;;;;;13.10;5.32;;;22.00;99.90;;;;;;5071886;28;20053;-72
2022/07/21 00:39:36;;;;;;;8.27;5.25;;;22.00;99.90;;;;;;5072059;28;20040;-72
2022/07/21 00:42:02;;;;;;;10.95;5.57;;;22.00;99.90;;;;;;5087733;28;20036;-72
2022/07/21 00:44:28;;;;;;;11.95;5.72;;;22.00;99.90;;;;;;5080788;28;20040;-72
2022/07/21 00:46:54;;;;;;;11.35;5.65;;;22.00;99.90;;;;;;5092223;28;20055;-72
2022/07/21 00:49:20;;;;;;;10.13;6.03;;;22.00;99.90;;;;;;5091026;28;20116;-72
2022/07/21 00:51:47;;;;;;;14.63;5.78;;;22.30;99.90;;;;;;5092084;28;20055;-72
2022/07/21 00:54:15;;;;;;;12.18;6.72;;;21.90;99.90;;;;;;5092644;28;20051;-72
2022/07/21 00:56:41;;;;;;;14.05;6.55;;;21.70;99.90;;;;;;5092204;28;20542;-72
2022/07/21 00:59:06;;;;;;;11.68;6.25;;;21.70;99.90;;;;;;5087929;28;20045;-72
2022/07/21 01:01:32;;;;;;;13.43;6.50;;;21.60;99.90;;;;;;5037046;28;20458;-73
2022/07/21 01:03:58;;;;;;;15.18;6.68;;;21.60;99.90;;;;;;5066179;28;20044;-70
2022/07/21 01:06:27;;;;;;;13.82;7.50;;;21.60;99.90;;;;;;5090562;28;20119;-70
2022/07/21 01:08:53;;;;;;;14.05;7.20;;;21.50;99.90;;;;;;5092004;28;20454;-70
2022/07/21 01:11:21;;;;;;;16.35;7.43;;;21.60;99.90;;;;;;5071729;28;20404;-70
2022/07/21 01:13:47;;;;;;;13.98;7.22;;;21.50;99.90;;;;;;5054579;28;20125;-70
2022/07/21 01:16:14;;;;;;;16.63;7.82;;;21.50;99.90;;;;;;5071039;28;20584;-70
2022/07/21 01:18:40;;;;;;;15.13;7.53;;;21.50;99.90;;;;;;5069193;28;20515;-71
2022/07/21 01:21:35;;;;;;;11.73;7.90;;;21.50;99.90;;;;;;5053983;28;20040;-72
2022/07/21 01:24:01;;;;;;;11.07;7.87;;;21.40;99.90;;;;;;5072038;28;20040;-73
2022/07/21 01:26:28;;;;;;;13.55;8.25;;;21.20;99.90;;;;;;5088691;28;20040;-72
2022/07/21 01:28:55;;;;;;;12.60;8.10;;;21.00;99.90;;;;;;5074720;28;20072;-70
2022/07/21 01:31:21;;;;;;;17.25;9.23;;;21.10;99.90;;;;;;5074859;28;20048;-71
2022/07/21 01:33:47;;;;;;;13.38;8.35;;;20.90;99.90;;;;;;5063878;28;20079;-70
2022/07/21 01:36:13;;;;;;;15.70;9.50;;;21.00;99.90;;;;;;5060439;28;20047;-70
2022/07/21 01:41:28;;;;;;;15.45;9.27;;;20.80;99.90;;;;;;5076765;28;20048;-70
2022/07/21 01:43:55;;;;;;;15.55;9.10;;;20.70;99.90;;;;;;5094175;28;20050;-70
2022/07/21 01:46:20;;;;;;;16.42;8.73;;;20.80;99.90;;;;;;5095077;28;20365;-70
2022/07/21 01:48:46;;;;;;;14.07;8.98;;;20.80;99.90;;;;;;5089700;28;20033;-70
2022/07/21 01:51:12;;;;;;;14.50;8.80;;;20.80;99.90;;;;;;5074815;28;20080;-70
2022/07/21 01:53:38;;;;;;;14.88;9.27;;;20.80;99.90;;;;;;5066020;28;20043;-70
2022/07/21 01:56:04;;;;;;;15.77;9.38;;;20.70;99.90;;;;;;5094913;28;20055;-70
2022/07/21 01:58:31;;;;;;;17.83;10.02;;;20.70;99.90;;;;;;5094965;28;20098;-70
2022/07/21 02:00:56;;;;;;;19.80;9.20;;;20.80;99.90;;;;;;5063227;28;20037;-69
2022/07/21 02:03:22;;;;;;;17.27;9.07;;;20.80;99.90;;;;;;5036700;28;20178;-70
2022/07/21 02:05:47;;;;;;;18.25;9.73;;;20.90;99.90;;;;;;5087722;28;20040;-70
2022/07/21 02:08:13;;;;;;;16.67;9.48;;;20.90;99.90;;;;;;5074996;28;20159;-70
2022/07/21 02:10:39;;;;;;;14.20;9.10;;;20.90;99.90;;;;;;5095023;28;20047;-70
2022/07/21 02:13:04;;;;;;;15.00;9.98;;;20.90;99.90;;;;;;5094480;28;20051;-70
2022/07/21 02:15:31;;;;;;;15.50;8.85;;;20.90;99.90;;;;;;5095266;28;20458;-70
2022/07/21 02:17:58;;;;;;;16.52;9.55;;;21.00;99.90;;;;;;5072342;28;20080;-70
2022/07/21 02:20:24;;;;;;;18.48;9.88;;;21.00;99.90;;;;;;5075173;28;20090;-70
2022/07/21 02:22:50;;;;;;;17.92;10.65;;;21.00;99.90;;;;;;5074530;28;20497;-70
2022/07/21 02:25:16;;;;;;;16.60;10.27;;;21.00;99.90;;;;;;5074731;28;20127;-70
2022/07/21 02:27:43;;;;;;;15.30;10.38;;;21.00;99.90;;;;;;5074401;28;20079;-70
2022/07/21 02:30:10;;;;;;;15.18;9.88;;;21.00;99.90;;;;;;5074559;28;20083;-70
2022/07/21 02:32:36;;;;;;;15.50;10.23;;;20.90;99.90;;;;;;5087497;28;20429;-71
2022/07/21 02:35:02;;;;;;;18.92;11.55;;;20.80;99.90;;;;;;5057400;28;20051;-68
2022/07/21 02:37:28;;;;;;;17.70;10.77;;;20.70;99.90;;;;;;5072582;28;20028;-68
2022/07/21 02:39:54;;;;;;;15.52;11.52;;;20.70;99.90;;;;;;5072613;28;20063;-69
2022/07/21 02:42:19;;;;;;;15.45;11.35;;;20.60;99.90;;;;;;5071832;28;20275;-68
2022/07/21 02:44:45;;;;;;;21.02;11.48;;;20.50;99.90;;;;;;5072472;28;20048;-68
2022/07/21 02:47:11;;;;;;;18.02;12.07;;;20.40;99.90;;;;;;5072554;28;20048;-68
2022/07/21 02:49:37;;;;;;;17.92;12.10;;;20.30;99.90;;;;;;5062970;28;20119;-69
2022/07/21 02:52:05;;;;;;;16.40;12.10;;;20.30;99.90;;;;;;5092549;28;20104;-69
2022/07/21 02:54:30;;;;;;;17.85;12.43;;;20.20;99.90;;;;;;5074549;28;20384;-69
2022/07/21 02:56:56;;;;;;;15.80;12.30;;;20.20;99.90;;;;;;5091846;28;20040;-69
2022/07/21 02:59:21;;;;;;;15.95;12.02;;;20.30;99.90;;;;;;5082953;28;20110;-68
2022/07/21 03:01:47;;;;;;;16.90;12.75;;;20.00;99.90;;;;;;5072282;28;20115;-69
2022/07/21 03:04:13;;;;;;;17.90;12.90;;;19.90;99.90;;;;;;5070368;28;20144;-68
2022/07/21 03:06:39;;;;;;;20.92;12.93;;;19.90;99.90;;;;;;5054119;28;20040;-68
2022/07/21 03:09:05;;;;;;;17.83;12.90;;;19.90;99.90;;;;;;5072055;28;20049;-68
2022/07/21 03:11:31;;;;;;;15.75;11.25;;;19.90;99.90;;;;;;5070917;28;20515;-68
2022/07/21 03:13:56;;;;;;;16.83;12.68;;;20.00;99.90;;;;;;5071655;28;20049;-69
2022/07/21 03:16:22;;;;;;;18.33;12.38;;;20.10;99.90;;;;;;5071869;28;20489;-68
2022/07/21 03:18:48;;;;;;;18.15;12.90;;;20.20;99.90;;;;;;5053075;28;20104;-68
2022/07/21 03:21:13;;;;;;;20.88;13.55;;;20.10;99.90;;;;;;5071521;28;20127;-68
2022/07/21 03:23:39;;;;;;;20.35;13.68;;;20.20;99.90;;;;;;5057768;28;20075;-68
2022/07/21 03:26:05;;;;;;;19.08;14.75;;;20.20;99.90;;;;;;5053740;28;20037;-69
2022/07/21 03:28:30;;;;;;;21.95;14.30;;;20.20;99.90;;;;;;5053479;28;20041;-68
2022/07/21 03:30:56;;;;;;;22.67;14.82;;;20.10;99.90;;;;;;5071019;28;20123;-69
2022/07/21 03:33:22;;;;;;;22.92;14.55;;;20.10;99.90;;;;;;5072780;28;20048;-69
2022/07/21 03:35:48;;;;;;;21.30;14.88;;;20.10;99.90;;;;;;5080837;28;20052;-69
2022/07/21 03:38:13;;;;;;;21.00;15.38;;;20.20;99.90;;;;;;5052248;28;20055;-68
2022/07/21 03:40:39;;;;;;;20.40;15.07;;;20.50;99.90;;;;;;5071541;28;20086;-69
2022/07/21 03:43:07;;;;;;;23.30;16.00;;;20.20;99.90;;;;;;5071876;28;20086;-68
2022/07/21 03:45:34;;;;;;;20.52;15.32;;;20.20;99.90;;;;;;5072875;28;20056;-68
2022/07/21 03:48:01;;;;;;;22.48;15.13;;;20.20;99.90;;;;;;5078802;28;20436;-69
2022/07/21 03:50:28;;;;;;;19.33;14.70;;;20.20;99.90;;;;;;5090671;28;20048;-69
2022/07/21 03:52:54;;;;;;;22.02;15.65;;;20.20;99.90;;;;;;5090503;28;20048;-69
2022/07/21 03:55:20;;;;;;;23.13;16.02;;;20.30;99.90;;;;;;5073399;28;20564;-69
2022/07/21 03:57:54;;;;;;;22.63;14.88;;;20.20;99.90;;;;;;5091204;28;20032;-70
2022/07/21 04:00:31;;;;;;;24.33;16.83;;;20.30;99.90;;;;;;5088058;28;20397;-69
2022/07/21 04:02:57;;;;;;;21.17;15.32;;;20.40;99.90;;;;;;5046471;28;20528;-69
2022/07/21 04:05:24;;;;;;;21.67;16.35;;;20.40;99.90;;;;;;5071023;28;20128;-68
2022/07/21 04:07:51;;;;;;;26.88;17.63;;;20.40;99.90;;;;;;5070387;28;20419;-68
2022/07/21 04:10:20;;;;;;;23.90;16.90;;;20.30;99.90;;;;;;5071246;28;20089;-69
2022/07/21 04:12:46;;;;;;;26.17;18.20;;;20.40;99.90;;;;;;5071117;28;20053;-68
2022/07/21 04:15:13;;;;;;;24.38;16.48;;;20.30;99.90;;;;;;5083476;28;20056;-69
2022/07/21 04:17:39;;;;;;;22.25;17.63;;;20.00;99.90;;;;;;5069069;28;20044;-69
2022/07/21 04:20:06;;;;;;;25.02;18.23;;;20.00;99.90;;;;;;5032205;28;20537;-69
2022/07/21 04:22:32;;;;;;;22.05;17.30;;;20.00;99.90;;;;;;5063207;28;20550;-69
2022/07/21 04:24:59;;;;;;;23.02;17.45;;;20.10;99.90;;;;;;5070971;28;20042;-69
2022/07/21 04:27:25;;;;;;;24.58;17.27;;;20.10;99.90;;;;;;5051724;28;20045;-68
2022/07/21 04:29:51;;;;;;;26.23;17.95;;;20.10;99.90;;;;;;5071062;28;20094;-69
2022/07/21 04:32:17;;;;;;;21.75;17.08;;;20.00;99.90;;;;;;5071116;28;20036;-68
2022/07/21 04:34:42;;;;;;;23.63;18.20;;;20.10;99.90;;;;;;5074014;28;20048;-68
2022/07/21 04:37:08;;;;;;;23.83;18.17;;;20.00;99.90;;;;;;5072349;28;20047;-69
2022/07/21 04:39:33;;;;;;;22.73;17.65;;;20.30;99.90;;;;;;5072179;28;20339;-69
2022/07/21 04:41:59;;;;;;;25.38;18.48;;;19.80;99.90;;;;;;5053934;28;20106;-69
2022/07/21 04:44:25;;;;;;;23.15;18.10;;;19.90;99.90;;;;;;5073124;28;20068;-69
2022/07/21 04:46:50;;;;;;;20.88;17.42;;;19.80;99.90;;;;;;5055277;28;20472;-69
2022/07/21 04:49:16;;;;;;;27.05;18.92;;;19.80;99.90;;;;;;5089914;28;20048;-69
2022/07/21 04:51:42;;;;;;;26.33;19.63;;;19.90;99.90;;;;;;5035661;28;20048;-69
2022/07/21 04:54:07;;;;;;;27.13;19.65;;;19.90;99.90;;;;;;5051855;28;20045;-69
2022/07/21 04:56:34;;;;;;;23.08;18.05;;;19.90;99.90;;;;;;5034255;28;20398;-69
2022/07/21 04:59:00;;;;;;;26.83;19.05;;;19.90;99.90;;;;;;5073966;28;20048;-69
2022/07/21 05:01:26;;;;;;;24.25;19.90;;;19.80;99.90;;;;;;5091710;28;20048;-69
2022/07/21 05:03:52;;;;;;;25.27;19.88;;;19.80;99.90;;;;;;5075057;28;20186;-69
2022/07/21 05:06:18;;;;;;;26.42;20.67;;;20.00;99.90;;;;;;5076369;28;20140;-69
2022/07/21 05:08:44;;;;;;;26.33;21.08;;;19.90;99.90;;;;;;5096011;28;20067;-69
2022/07/21 05:11:09;;;;;;;29.02;21.13;;;20.00;99.90;;;;;;5066222;28;20069;-69
2022/07/21 05:13:35;;;;;;;26.25;21.52;;;20.00;99.90;;;;;;5075377;28;20519;-69
2022/07/21 05:16:01;;;;;;;29.13;21.23;;;20.00;99.90;;;;;;5075511;28;20404;-69
2022/07/21 05:18:26;;;;;;;27.25;21.13;;;20.00;99.90;;;;;;5057182;28;20041;-69
2022/07/21 05:20:52;;;;;;;25.95;20.60;;;20.00;99.90;;;;;;5074911;28;20139;-69
2022/07/21 05:23:17;;;;;;;24.55;19.33;;;20.10;99.90;;;;;;5077587;28;20111;-69
2022/07/21 05:25:43;;;;;;;24.98;20.40;;;20.00;99.90;;;;;;5076774;28;20044;-69
2022/07/21 05:28:09;;;;;;;26.02;20.67;;;20.10;99.90;;;;;;5095300;28;20491;-69
2022/07/21 05:30:35;;;;;;;23.50;18.27;;;20.10;99.90;;;;;;5095362;28;20083;-69
2022/07/21 05:33:01;;;;;;;23.70;19.60;;;20.10;99.90;;;;;;5095320;28;20412;-69
2022/07/21 05:35:26;;;;;;;26.98;20.48;;;20.10;99.90;;;;;;5095368;28;20117;-69
2022/07/21 05:37:52;;;;;;;24.33;19.83;;;20.10;99.90;;;;;;5083521;28;20053;-69
2022/07/21 05:40:17;;;;;;;24.65;20.63;;;20.10;99.90;;;;;;5075081;28;20123;-69
2022/07/21 05:42:43;;;;;;;24.10;19.88;;;20.10;99.90;;;;;;5074473;28;20032;-70
2022/07/21 05:45:10;;;;;;;26.92;20.48;;;20.00;99.90;;;;;;5074909;28;20048;-70
2022/07/21 05:47:35;;;;;;;21.50;18.48;;;20.10;99.90;;;;;;5076104;28;20029;-70
2022/07/21 05:50:01;;;;;;;23.13;20.05;;;20.10;99.90;;;;;;5094754;28;20044;-70
2022/07/21 05:52:27;;;;;;;23.73;18.15;;;20.10;99.90;;;;;;5059690;28;20143;-70
2022/07/21 05:54:52;;;;;;;22.63;19.10;;;20.30;99.90;;;;;;5095283;28;20040;-70
2022/07/21 05:57:18;;;;;;;20.33;17.58;;;20.10;99.90;;;;;;5076832;28;20127;-70
2022/07/21 05:59:45;;;;;;;22.70;18.45;;;20.30;99.90;;;;;;5095256;28;20078;-70
2022/07/21 06:02:11;;;;;;;22.85;18.30;;;20.40;99.90;;;;;;5092986;28;20040;-70
2022/07/21 06:04:36;;;;;;;24.13;18.88;;;20.20;99.90;;;;;;5086328;28;20070;-70
2022/07/21 06:07:02;;;;;;;22.33;18.52;;;20.20;99.90;;;;;;5094807;28;20047;-70
2022/07/21 06:09:28;;;;;;;22.75;19.15;;;20.10;99.90;;;;;;5076662;28;20378;-70
2022/07/21 06:11:54;;;;;;;25.67;19.13;;;20.20;99.90;;;;;;5085167;28;20590;-70
2022/07/21 06:14:20;;;;;;;24.85;19.00;;;20.20;99.90;;;;;;5053553;28;20091;-71
2022/07/21 06:16:46;;;;;;;21.38;18.30;;;20.30;99.90;;;;;;5075602;28;20048;-71
2022/07/21 06:19:11;;;;;;;21.77;18.15;;;20.20;99.90;;;;;;5077738;28;20044;-70
2022/07/21 06:21:37;;;;;;;24.20;19.13;;;20.30;99.90;;;;;;5094582;28;20036;-70
2022/07/21 06:24:02;;;;;;;21.92;18.00;;;20.60;99.90;;;;;;5076281;28;20035;-71
2022/07/21 06:26:28;;;;;;;21.15;17.55;;;20.20;99.90;;;;;;5076773;28;20115;-71
2022/07/21 06:28:54;;;;;;;23.70;18.90;;;20.30;99.90;;;;;;5074318;28;20044;-71
2022/07/21 06:31:20;;;;;;;24.67;18.02;;;20.30;99.90;;;;;;5072002;28;20044;-70
2022/07/21 06:33:46;;;;;;;21.90;18.15;;;20.30;99.90;;;;;;5074069;28;20047;-71
2022/07/21 06:36:12;;;;;;;23.40;18.40;;;20.40;99.90;;;;;;5074137;28;20108;-70
2022/07/21 06:38:37;;;;;;;21.52;17.08;;;20.40;99.90;;;;;;5074797;28;20040;-71
2022/07/21 06:41:03;;;;;;;22.95;17.13;;;20.50;99.90;;;;;;5040072;28;20477;-70
2022/07/21 06:43:28;;;;;;;20.50;17.65;;;20.40;99.90;;;;;;5070745;28;20473;-70
2022/07/21 06:45:55;;;;;;;21.80;18.67;;;20.40;99.90;;;;;;5055911;28;20582;-70
2022/07/21 06:48:21;;;;;;;21.25;17.33;;;20.30;99.90;;;;;;5073543;28;20045;-70
2022/07/21 06:50:47;;;;;;;22.88;17.88;;;20.40;99.90;;;;;;5073502;28;20264;-71
2022/07/21 06:53:13;;;;;;;18.75;16.15;;;20.30;99.90;;;;;;5073419;28;20068;-71
2022/07/21 06:55:38;;;;;;;21.25;17.80;;;20.50;99.90;;;;;;5073480;28;20040;-71
2022/07/21 06:58:13;;;;;;;23.33;18.25;;;20.50;99.90;;;;;;5073389;28;20047;-70
2022/07/21 07:00:39;;;;;;;21.30;17.20;;;20.60;99.90;;;;;;5083867;28;20054;-70
2022/07/21 07:03:05;;;;;;;23.13;18.90;;;20.60;99.90;;;;;;5071537;28;20044;-70
2022/07/21 07:05:31;;;;;;;23.38;18.42;;;20.60;99.90;;;;;;5073379;28;20064;-70
2022/07/21 07:07:56;;;;;;;22.63;17.67;;;20.60;99.90;;;;;;5073245;28;20113;-70
2022/07/21 07:10:23;;;;;;;23.00;18.55;;;20.60;99.90;;;;;;5074255;28;20056;-70
2022/07/21 07:12:48;;;;;;;23.73;19.77;;;20.70;99.90;;;;;;5054765;28;20052;-70
2022/07/21 07:15:14;;;;;;;22.75;18.92;;;20.70;99.90;;;;;;5074500;28;20056;-70
2022/07/21 07:17:39;;;;;;;26.55;21.45;;;20.70;99.90;;;;;;5073013;28;20041;-69
2022/07/21 07:20:07;;;;;;;23.60;21.00;;;20.60;99.90;;;;;;5072954;28;20386;-70
2022/07/21 07:22:33;;;;;;;25.50;21.00;;;20.50;99.90;;;;;;5055147;28;20093;-70
2022/07/21 07:24:59;;;;;;;25.83;21.10;;;20.50;99.90;;;;;;5071861;28;20052;-70
2022/07/21 07:27:25;;;;;;;25.60;21.10;;;20.50;99.90;;;;;;5054038;28;20088;-70
2022/07/21 07:29:51;;;;;;;27.90;21.80;;;20.30;99.90;;;;;;5074147;28;20041;-70
2022/07/21 07:32:17;;;;;;;25.35;21.15;;;20.30;99.90;;;;;;5069817;28;20132;-70
2022/07/21 07:34:42;;;;;;;25.52;21.55;;;20.40;99.90;;;;;;5073143;28;20078;-69
2022/07/21 07:37:08;;;;;;;26.30;23.52;;;20.40;99.90;;;;;;5093175;28;20059;-70
2022/07/21 07:39:34;;;;;;;25.13;21.75;;;20.30;99.90;;;;;;5078503;28;20033;-69
2022/07/21 07:41:59;;;;;;;29.05;22.23;;;20.40;99.90;;;;;;5054698;28;20049;-70
2022/07/21 07:44:25;;;;;;;25.50;21.58;;;20.40;99.90;;;;;;5073418;28;20756;-70
2022/07/21 07:46:51;;;;;;;26.40;20.90;;;20.50;99.90;;;;;;5074399;28;20139;-78
2022/07/21 07:49:17;;;;;;;23.77;20.35;;;20.40;99.90;;;;;;5072806;28;20461;-78
2022/07/21 07:51:43;;;;;;;24.00;20.92;;;20.40;99.90;;;;;;5070705;28;20047;-77
2022/07/21 07:54:08;;;;;;;24.50;21.45;;;20.40;99.90;;;;;;5072328;28;20373;-78
2022/07/21 07:56:34;;;;;;;23.65;20.70;;;20.40;99.90;;;;;;5082426;28;20050;-78
2022/07/21 07:59:00;;;;;;;24.77;20.67;;;20.40;99.90;;;;;;5074653;28;20051;-78
2022/07/21 08:01:25;;;;;;;24.05;19.85;;;20.50;99.90;;;;;;5092226;28;20043;-78
2022/07/21 08:03:51;;;;;;;22.98;20.45;;;20.50;99.90;;;;;;5092690;28;20073;-78
2022/07/21 08:06:17;;;;;;;22.80;20.40;;;20.50;99.90;;;;;;5091275;28;20389;-78
2022/07/21 08:08:42;;;;;;;24.35;20.15;;;20.30;99.90;;;;;;5092364;28;20096;-79
2022/07/21 08:11:10;;;;;;;23.10;19.90;;;20.40;99.90;;;;;;5074386;28;20636;-78
2022/07/21 08:13:36;;;;;;;23.27;20.65;;;20.40;99.90;;;;;;5054826;28;20052;-78
2022/07/21 08:16:01;;;;;;;22.85;20.08;;;20.40;99.90;;;;;;5052509;28;20048;-69
2022/07/21 08:18:27;;;;;;;22.50;20.10;;;20.50;99.90;;;;;;5051903;28;20037;-69
2022/07/21 08:20:53;;;;;;;25.30;20.33;;;20.60;99.90;;;;;;5051556;28;20127;-70
2022/07/21 08:23:18;;;;;;;22.95;19.80;;;20.60;99.90;;;;;;5051464;28;20175;-70
2022/07/21 08:25:44;;;;;;;25.65;19.60;;;20.70;99.90;;;;;;5051097;28;20045;-78
2022/07/21 08:28:11;;;;;;;23.63;20.77;;;20.80;99.90;;;;;;5081070;28;20120;-79
2022/07/21 08:30:37;;;;;;;23.80;20.33;;;20.80;99.90;;;;;;5084583;28;20048;-80
2022/07/21 08:33:03;;;;;;;23.73;21.17;;;20.80;99.90;;;;;;5087399;28;20101;-80
2022/07/21 08:35:29;;;;;;;24.67;20.92;;;20.80;99.90;;;;;;5070854;28;20048;-79
2022/07/21 08:37:58;;;;;;;23.52;19.83;;;20.90;99.90;;;;;;5091504;28;20136;-80
2022/07/21 08:40:25;;;;;;;22.75;19.98;;;21.00;99.90;;;;;;5074178;28;20055;-80
2022/07/21 08:42:52;;;;;;;24.33;20.52;;;21.00;99.90;;;;;;5093205;28;20471;-79
2022/07/21 08:45:18;;;;;;;24.25;21.13;;;21.30;99.90;;;;;;5056476;28;20071;-80
2022/07/21 08:47:43;;;;;;;22.63;20.10;;;21.30;99.90;;;;;;5075232;28;20117;-79
2022/07/21 08:50:09;;;;;;;24.63;22.02;;;21.30;99.90;;;;;;5079544;28;20403;-79
2022/07/21 08:52:35;;;;;;;25.05;20.33;;;21.40;99.90;;;;;;5034375;28;20037;-80
2022/07/21 08:55:01;;;;;;;26.05;21.80;;;21.40;99.90;;;;;;5056689;28;20084;-79
2022/07/21 08:57:27;;;;;;;23.90;20.52;;;21.40;99.90;;;;;;5055730;28;20124;-80
2022/07/21 08:59:53;;;;;;;26.70;22.05;;;21.50;99.90;;;;;;5073054;28;20105;-79
2022/07/21 09:02:29;;;;;;;27.15;22.58;;;21.50;99.90;;;;;;5072448;28;20094;-80
2022/07/21 09:04:55;;;;;;;23.05;20.55;;;21.60;99.90;;;;;;5073414;28;20041;-79
2022/07/21 09:07:22;;;;;;;24.40;20.23;;;21.60;99.90;;;;;;5055869;28;20033;-80
2022/07/21 09:09:56;;;;;;;23.80;21.15;;;21.60;99.90;;;;;;5073316;28;20051;-80
2022/07/21 09:12:22;;;;;;;26.52;20.60;;;21.60;99.90;;;;;;5054348;28;20144;-80
2022/07/21 09:14:49;;;;;;;25.25;22.00;;;21.60;99.90;;;;;;5054746;28;20128;-80
2022/07/21 09:17:17;;;;;;;28.45;22.25;;;21.50;99.90;;;;;;5054138;28;20056;-80
2022/07/21 09:19:45;;;;;;;28.77;23.35;;;21.50;99.90;;;;;;5073002;28;20045;-80
2022/07/21 09:22:14;;;;;;;29.83;24.38;;;21.40;99.90;;;;;;5059006;28;20043;-80
2022/07/21 09:24:40;;;;;;;26.75;23.85;;;21.40;99.90;;;;;;5092873;28;20048;-81
2022/07/21 09:27:07;;;;;;;27.85;23.20;;;21.40;99.90;;;;;;5088881;28;20451;-80
2022/07/21 09:29:34;;;;;;;33.10;26.80;;;21.30;99.90;;;;;;5075289;28;20055;-80
2022/07/21 09:32:13;;;;;;;31.35;24.50;;;21.40;99.90;;;;;;5081466;28;20041;-81
2022/07/21 09:34:39;;;;;;;27.83;24.67;;;21.40;99.90;;;;;;5039134;28;20048;-81
2022/07/21 09:37:06;;;;;;;34.20;27.98;;;21.50;99.90;;;;;;5087713;28;20527;-81
2022/07/21 09:39:42;;;;;;;32.60;25.85;;;21.60;99.90;;;;;;5070314;28;20051;-81
2022/07/21 09:42:19;;;;;;;33.40;27.55;;;21.70;99.90;;;;;;5074262;28;20040;-81
2022/07/21 09:44:49;;;;;;;34.05;27.98;;;21.80;99.90;;;;;;5055755;28;20501;-82
2022/07/21 09:47:17;;;;;;;35.85;28.63;;;22.00;99.90;;;;;;5073322;28;20071;-81
2022/07/21 09:49:43;;;;;;;37.22;29.75;;;22.20;99.90;;;;;;5072783;28;20044;-81
2022/07/21 09:52:30;;;;;;;36.50;30.30;;;22.50;99.90;;;;;;5040803;28;20123;-71
2022/07/21 09:55:05;;;;;;;36.65;30.65;;;22.70;99.90;;;;;;5074726;28;20075;-70
2022/07/21 09:57:31;;;;;;;35.28;29.83;;;23.20;99.90;;;;;;5074401;28;20056;-71
2022/07/21 09:59:58;;;;;;;34.58;28.67;;;23.50;99.90;;;;;;5074584;28;20055;-71
2022/07/21 10:02:30;;;;;;;33.85;28.85;;;23.80;99.90;;;;;;5074123;28;20055;-70
2022/07/21 10:05:08;;;;;;;32.67;27.65;;;24.20;99.90;;;;;;5075069;28;20037;-70
2022/07/21 10:07:40;;;;;;;32.67;27.98;;;24.50;99.90;;;;;;5056673;28;20049;-70
2022/07/21 10:10:06;;;;;;;32.83;27.08;;;24.70;99.90;;;;;;5074030;28;20041;-70
2022/07/21 10:12:32;;;;;;;32.20;26.30;;;24.60;99.90;;;;;;5054121;28;20066;-70
2022/07/21 10:14:58;;;;;;;34.15;26.52;;;24.80;99.90;;;;;;5034320;28;20179;-69
2022/07/21 10:17:25;;;;;;;34.15;28.50;;;25.50;99.90;;;;;;5034599;28;20091;-69
2022/07/21 10:20:15;;;;;;;34.63;28.17;;;25.80;99.90;;;;;;5034446;28;20061;-70
2022/07/21 10:23:02;;;;;;;33.25;28.75;;;25.70;99.90;;;;;;5033936;28;20045;-70
2022/07/21 10:25:28;;;;;;;33.28;28.48;;;25.50;99.90;;;;;;5033206;28;20049;-70
2022/07/21 10:28:14;;;;;;;35.03;29.10;;;24.80;99.90;;;;;;5033759;28;20042;-70
2022/07/21 10:30:46;;;;;;;34.25;28.67;;;24.30;99.90;;;;;;5033753;28;20534;-70
2022/07/21 10:33:13;;;;;;;33.75;27.40;;;24.10;99.90;;;;;;5016170;28;20042;-70
2022/07/21 10:35:42;;;;;;;32.95;27.70;;;24.00;99.90;;;;;;5034348;28;20041;-70
2022/07/21 10:38:28;;;;;;;32.92;29.27;;;23.90;99.90;;;;;;5033644;28;20080;-70
2022/07/21 10:40:54;;;;;;;32.47;28.42;;;23.80;99.90;;;;;;5033311;28;20405;-70
2022/07/21 10:43:26;;;;;;;34.47;29.33;;;24.10;99.90;;;;;;5033703;28;20052;-69
2022/07/21 10:45:53;;;;;;;32.80;27.88;;;24.80;99.90;;;;;;5034003;28;20139;-72
2022/07/21 10:48:37;;;;;;;28.58;23.88;;;25.00;99.90;;;;;;5015487;28;20045;-71
2022/07/21 10:51:08;;;;;;;28.40;22.80;;;24.90;99.90;;;;;;5015549;28;20049;-71
2022/07/21 10:53:35;;;;;;;28.77;21.85;;;24.80;99.90;;;;;;5015483;28;20399;-71
2022/07/21 10:56:00;;;;;;;25.85;22.00;;;24.50;99.90;;;;;;5033698;28;20045;-71
2022/07/21 10:58:27;;;;;;;27.73;23.15;;;24.50;99.90;;;;;;5015669;28;20486;-70
2022/07/21 11:00:56;;;;;;;31.05;24.67;;;24.40;99.90;;;;;;5033382;28;20046;-71
2022/07/21 11:03:26;;;;;;;26.05;23.23;;;24.40;99.90;;;;;;5033251;28;20414;-71
2022/07/21 11:06:19;;;;;;;27.83;22.48;;;24.50;99.90;;;;;;5015859;28;20050;-71
2022/07/21 11:08:51;;;;;;;28.55;24.95;;;24.50;99.90;;;;;;5033443;28;20052;-70
2022/07/21 11:11:23;;;;;;;25.75;21.30;;;24.60;99.90;;;;;;5033240;28;20069;-71
2022/07/21 11:13:58;;;;;;;27.85;22.77;;;24.90;99.90;;;;;;5051530;28;20083;-71
2022/07/21 11:16:48;;;;;;;26.83;22.40;;;25.10;99.90;;;;;;5053417;28;20053;-71
2022/07/21 11:19:30;;;;;;;25.05;20.90;;;25.50;99.90;;;;;;5035051;28;20044;-71
2022/07/21 11:21:59;;;;;;;23.80;21.17;;;26.10;99.90;;;;;;5034930;28;20045;-71
2022/07/21 11:24:26;;;;;;;21.65;19.00;;;26.40;99.90;;;;;;5035004;28;20521;-71
2022/07/21 11:27:04;;;;;;;25.10;21.75;;;26.90;99.90;;;;;;5052923;28;20052;-71
2022/07/21 11:29:31;;;;;;;23.58;19.13;;;27.30;99.90;;;;;;5053046;28;20508;-71
2022/07/21 11:31:58;;;;;;;21.80;19.45;;;27.70;99.90;;;;;;5052717;28;20516;-71
2022/07/21 11:34:24;;;;;;;22.55;18.40;;;27.90;99.90;;;;;;5052595;28;20125;-71
2022/07/21 11:37:00;;;;;;;24.10;19.30;;;27.80;99.90;;;;;;5052818;28;20041;-71
2022/07/21 11:39:26;;;;;;;27.98;18.02;;;27.90;99.90;;;;;;5052813;28;20143;-71
2022/07/21 11:41:53;;;;;;;25.58;20.25;;;27.80;99.90;;;;;;5054194;28;20053;-71
2022/07/21 11:44:24;;;;;;;20.38;18.20;;;27.50;99.90;;;;;;5053842;28;20115;-71
2022/07/21 11:46:53;;;;;;;22.15;18.77;;;27.20;99.90;;;;;;5072199;28;20040;-71
2022/07/21 11:49:19;;;;;;;20.08;17.30;;;26.80;99.90;;;;;;5072156;28;20085;-71
2022/07/21 11:51:55;;;;;;;20.73;17.35;;;26.50;99.90;;;;;;5072037;28;20171;-71
2022/07/21 11:54:43;;;;;;;20.70;17.25;;;27.10;99.90;;;;;;5054606;28;20516;-71
2022/07/21 11:57:09;;;;;;;17.42;14.27;;;27.80;99.90;;;;;;5072465;28;20098;-71
2022/07/21 11:59:38;;;;;;;15.23;12.55;;;28.90;99.90;;;;;;5072276;28;20489;-71
2022/07/21 12:02:10;;;;;;;14.02;11.02;;;29.60;99.90;;;;;;5072316;28;20055;-70
2022/07/21 12:04:46;;;;;;;14.32;10.85;;;30.00;99.90;;;;;;5072168;28;20040;-70
2022/07/21 12:07:31;;;;;;;15.32;11.60;;;30.90;99.90;;;;;;5037647;28;20048;-70
2022/07/21 12:10:00;;;;;;;13.67;10.97;;;30.80;99.90;;;;;;5054814;28;20040;-70
2022/07/21 12:12:28;;;;;;;12.95;10.43;;;30.40;99.90;;;;;;5069852;28;20291;-70
2022/07/21 12:14:54;;;;;;;13.73;11.93;;;30.10;99.90;;;;;;5071903;28;20111;-70
2022/07/21 12:17:41;;;;;;;13.18;11.10;;;29.50;99.90;;;;;;5069923;28;20480;-71
2022/07/21 12:20:08;;;;;;;10.40;9.23;;;29.40;99.90;;;;;;5070098;28;20048;-71
2022/07/21 12:22:49;;;;;;;11.68;9.77;;;29.60;99.90;;;;;;5053128;28;20555;-71
2022/07/21 12:25:17;;;;;;;11.25;9.70;;;29.90;99.90;;;;;;5033996;28;20053;-71
2022/07/21 12:27:47;;;;;;;7.45;6.65;;;29.20;99.90;;;;;;5051582;28;20052;-72
2022/07/21 12:30:41;;;;;;;10.50;7.55;;;29.30;99.90;;;;;;5051729;28;20054;-70
2022/07/21 12:33:08;;;;;;;9.25;7.57;;;29.00;99.90;;;;;;5033908;28;20067;-71